To NAV CANADA Home Page Login to a new session Search on AWWS site Disclaimer Vers la page française équivalente Tips FAQ What's new on the site To the Forecasts and Observations / NOTAM section To "File a Flight Plan" website Publications and other links Update of the User's profile FIC Telephone Numbers My Weather Data Folder Route Weather Data Regional Weather Data Local Weather Data To the Forecasts and Observations / NOTAM section
Request Generated 02/18/2019 at 14:41:38 UTC . Weather information available at that time is displayed.

METAR/TAF

TORONTO/BILLY BISHOP TORONTO CITY AIRPORT/ON    (show WxCam)

SPECI CYTZ 181432Z AUTO 35007KT 2 1/4SM -SN OVC026 M08/M11 A3007 RMK VIS VRB 1-3 SLP190=
SPECI CYTZ 181423Z AUTO 34006KT 310V010 3SM -SN FEW019 OVC026 M08/M11 A3007 RMK SLP188=
SPECI CYTZ 181408Z AUTO 32006KT 300V020 2 1/2SM -SN FEW019 OVC026 M08/M11 A3006 RMK PRESRR SLP186=
SPECI CYTZ 181403Z AUTO 33006KT 310V030 3SM -SN FEW019 OVC026 M08/M11 A3006 RMK PRESRR SLP185=
METAR CYTZ 181400Z AUTO 36009KT 2 1/4SM -SN SCT019 OVC026 M08/M11 A3005 RMK SLP183=
SPECI CYTZ 181358Z AUTO 35008KT 2SM -SN SCT017 OVC026 M08/M11 A3005 RMK SLP183=
SPECI CYTZ 181341Z AUTO 33006KT 300V010 1 1/2SM -SN FEW017 OVC022 M08/M11 A3005 RMK VIS VRB 1-2 PRESRR SLP181=
SPECI CYTZ 181323Z AUTO 34007KT 300V020 1 1/4SM -SN OVC018 M08/M11 A3003 RMK VIS VRB 3/4-2 1/4 SLP176=
SPECI CYTZ 181310Z AUTO 36005KT 320V020 1 1/2SM -SN OVC020 M08/M11 A3002 RMK VIS VRB 5/8-3 PRESRR SLP173=
SPECI CYTZ 181303Z AUTO 35008G15KT 1 1/4SM -SN OVC020 M08/M12 A3002 RMK VIS VRB 5/8-2 1/4 SLP171=
METAR CYTZ 181300Z AUTO 35010G15KT 1 1/2SM -SN OVC020 M08/M11 A3001 RMK VIS VRB 3/4-2 1/4 SLP170=
METAR CYTZ 181200Z AUTO 34008KT 310V010 1 1/2SM -SN OVC022 M08/M11 A2997 RMK VIS VRB 3/8-3 SLP156=

TAF CYTZ 181338Z 1814/1914 35010G20KT 1SM -SN BKN020 OVC030 TEMPO
1814/1815 3SM -SN BKN025 OVC030
FM181500 35012G22KT 3SM -SN OVC015 TEMPO 1815/1817 P6SM -SN
FM181700 33015KT P6SM FEW020 BKN100 TEMPO 1817/1818 5SM -SN
BKN020 OVC100
FM182000 32015KT P6SM FEW100
BECMG 1822/1824 35010KT
FM190300 32006KT P6SM SKC
BECMG 1907/1909 VRB03KT
FM191000 VRB03KT P6SM SCT020
BECMG 1912/1914 SKC
RMK FCST BASED ON AUTO OBS. NXT FCST BY 182000Z=
Your time UTC time
Weather data provided by Environment Canada and NAV CANADA